sensor_id;sensor_type;location;lat;lon;timestamp;P1;durP1;ratioP1;P2;durP2;ratioP2
13855;SDS011;6998;53.608;9.958;2023-04-24T00:01:14;8.30;;;7.40;;
13855;SDS011;6998;53.608;9.958;2023-04-24T00:03:42;7.68;;;7.07;;
13855;SDS011;6998;53.608;9.958;2023-04-24T00:06:09;7.68;;;7.00;;
13855;SDS011;6998;53.608;9.958;2023-04-24T00:08:35;8.07;;;7.35;;
13855;SDS011;6998;53.608;9.958;2023-04-24T00:11:02;9.07;;;8.27;;
13855;SDS011;6998;53.608;9.958;2023-04-24T00:13:29;9.05;;;7.38;;
13855;SDS011;6998;53.608;9.958;2023-04-24T00:15:56;7.72;;;7.00;;
13855;SDS011;6998;53.608;9.958;2023-04-24T00:18:24;8.45;;;7.65;;
13855;SDS011;6998;53.608;9.958;2023-04-24T00:20:51;8.27;;;7.47;;
13855;SDS011;6998;53.608;9.958;2023-04-24T00:23:18;8.98;;;7.97;;
13855;SDS011;6998;53.608;9.958;2023-04-24T00:25:45;10.27;;;8.10;;
13855;SDS011;6998;53.608;9.958;2023-04-24T00:28:12;8.68;;;7.65;;
13855;SDS011;6998;53.608;9.958;2023-04-24T00:30:39;8.00;;;7.20;;
13855;SDS011;6998;53.608;9.958;2023-04-24T00:33:06;7.97;;;7.28;;
13855;SDS011;6998;53.608;9.958;2023-04-24T00:35:35;7.72;;;7.03;;
13855;SDS011;6998;53.608;9.958;2023-04-24T00:38:02;7.60;;;6.90;;
13855;SDS011;6998;53.608;9.958;2023-04-24T00:40:29;8.13;;;7.35;;
13855;SDS011;6998;53.608;9.958;2023-04-24T00:42:56;7.82;;;7.13;;
13855;SDS011;6998;53.608;9.958;2023-04-24T00:45:22;8.63;;;7.68;;
13855;SDS011;6998;53.608;9.958;2023-04-24T00:47:49;7.50;;;6.80;;
13855;SDS011;6998;53.608;9.958;2023-04-24T00:50:18;8.02;;;7.38;;
13855;SDS011;6998;53.608;9.958;2023-04-24T00:52:49;7.72;;;6.80;;
13855;SDS011;6998;53.608;9.958;2023-04-24T00:55:16;7.65;;;7.05;;
13855;SDS011;6998;53.608;9.958;2023-04-24T00:57:43;8.15;;;7.43;;
13855;SDS011;6998;53.608;9.958;2023-04-24T01:00:10;8.07;;;7.40;;
13855;SDS011;6998;53.608;9.958;2023-04-24T01:02:38;8.10;;;7.32;;
13855;SDS011;6998;53.608;9.958;2023-04-24T01:05:09;7.78;;;7.03;;
13855;SDS011;6998;53.608;9.958;2023-04-24T01:07:36;7.93;;;7.22;;
13855;SDS011;6998;53.608;9.958;2023-04-24T01:10:05;8.13;;;7.43;;
13855;SDS011;6998;53.608;9.958;2023-04-24T01:12:33;8.07;;;7.38;;
13855;SDS011;6998;53.608;9.958;2023-04-24T01:15:01;7.78;;;7.18;;
13855;SDS011;6998;53.608;9.958;2023-04-24T01:17:28;8.20;;;7.40;;
13855;SDS011;6998;53.608;9.958;2023-04-24T01:19:54;7.65;;;6.90;;
13855;SDS011;6998;53.608;9.958;2023-04-24T01:22:23;8.52;;;7.60;;
13855;SDS011;6998;53.608;9.958;2023-04-24T01:24:50;7.97;;;7.28;;
13855;SDS011;6998;53.608;9.958;2023-04-24T01:27:18;7.95;;;6.50;;
13855;SDS011;6998;53.608;9.958;2023-04-24T01:29:45;7.53;;;6.63;;
13855;SDS011;6998;53.608;9.958;2023-04-24T01:32:14;6.68;;;6.13;;
13855;SDS011;6998;53.608;9.958;2023-04-24T01:34:41;7.47;;;6.75;;
13855;SDS011;6998;53.608;9.958;2023-04-24T01:37:09;8.00;;;7.03;;
13855;SDS011;6998;53.608;9.958;2023-04-24T01:39:37;7.85;;;6.30;;
13855;SDS011;6998;53.608;9.958;2023-04-24T01:42:04;6.72;;;6.13;;
13855;SDS011;6998;53.608;9.958;2023-04-24T01:44:31;7.03;;;5.88;;
13855;SDS011;6998;53.608;9.958;2023-04-24T01:47:00;6.72;;;6.13;;
13855;SDS011;6998;53.608;9.958;2023-04-24T01:49:27;6.18;;;5.60;;
13855;SDS011;6998;53.608;9.958;2023-04-24T01:51:54;6.55;;;5.97;;
13855;SDS011;6998;53.608;9.958;2023-04-24T01:54:21;6.03;;;5.50;;
13855;SDS011;6998;53.608;9.958;2023-04-24T01:56:49;6.15;;;5.55;;
13855;SDS011;6998;53.608;9.958;2023-04-24T01:59:16;6.47;;;5.75;;
13855;SDS011;6998;53.608;9.958;2023-04-24T02:01:43;5.43;;;4.93;;
13855;SDS011;6998;53.608;9.958;2023-04-24T02:04:10;5.30;;;4.72;;
13855;SDS011;6998;53.608;9.958;2023-04-24T02:06:37;4.32;;;3.88;;
13855;SDS011;6998;53.608;9.958;2023-04-24T02:09:04;3.63;;;3.28;;
13855;SDS011;6998;53.608;9.958;2023-04-24T02:11:31;3.97;;;3.45;;
13855;SDS011;6998;53.608;9.958;2023-04-24T02:13:59;3.88;;;3.42;;
13855;SDS011;6998;53.608;9.958;2023-04-24T02:16:27;3.95;;;3.40;;
13855;SDS011;6998;53.608;9.958;2023-04-24T02:18:57;4.47;;;3.47;;
13855;SDS011;6998;53.608;9.958;2023-04-24T02:21:24;3.80;;;3.40;;
13855;SDS011;6998;53.608;9.958;2023-04-24T02:23:50;3.15;;;2.85;;
13855;SDS011;6998;53.608;9.958;2023-04-24T02:26:17;3.08;;;2.78;;
13855;SDS011;6998;53.608;9.958;2023-04-24T02:28:44;4.78;;;3.22;;
13855;SDS011;6998;53.608;9.958;2023-04-24T02:31:12;2.90;;;2.47;;
13855;SDS011;6998;53.608;9.958;2023-04-24T02:33:39;2.97;;;2.58;;
13855;SDS011;6998;53.608;9.958;2023-04-24T02:36:06;4.15;;;2.50;;
13855;SDS011;6998;53.608;9.958;2023-04-24T02:38:33;3.20;;;2.72;;
13855;SDS011;6998;53.608;9.958;2023-04-24T02:41:00;3.75;;;2.83;;
13855;SDS011;6998;53.608;9.958;2023-04-24T02:43:29;3.17;;;2.78;;
13855;SDS011;6998;53.608;9.958;2023-04-24T02:45:56;2.83;;;2.58;;
13855;SDS011;6998;53.608;9.958;2023-04-24T02:48:24;4.85;;;2.70;;
13855;SDS011;6998;53.608;9.958;2023-04-24T02:50:51;3.13;;;2.83;;
13855;SDS011;6998;53.608;9.958;2023-04-24T02:53:18;3.15;;;2.85;;
13855;SDS011;6998;53.608;9.958;2023-04-24T02:55:44;3.50;;;3.10;;
13855;SDS011;6998;53.608;9.958;2023-04-24T02:58:12;3.30;;;2.97;;
13855;SDS011;6998;53.608;9.958;2023-04-24T03:00:38;3.40;;;3.10;;
13855;SDS011;6998;53.608;9.958;2023-04-24T03:03:05;4.18;;;3.00;;
13855;SDS011;6998;53.608;9.958;2023-04-24T03:05:34;6.75;;;3.70;;
13855;SDS011;6998;53.608;9.958;2023-04-24T03:08:01;4.28;;;3.20;;
13855;SDS011;6998;53.608;9.958;2023-04-24T03:10:27;3.33;;;3.00;;
13855;SDS011;6998;53.608;9.958;2023-04-24T03:12:54;4.30;;;3.30;;
13855;SDS011;6998;53.608;9.958;2023-04-24T03:15:21;3.30;;;3.03;;
13855;SDS011;6998;53.608;9.958;2023-04-24T03:17:48;3.08;;;2.85;;
13855;SDS011;6998;53.608;9.958;2023-04-24T03:20:15;3.42;;;3.13;;
13855;SDS011;6998;53.608;9.958;2023-04-24T03:22:43;4.50;;;3.10;;
13855;SDS011;6998;53.608;9.958;2023-04-24T03:25:10;3.20;;;2.92;;
13855;SDS011;6998;53.608;9.958;2023-04-24T03:27:37;2.90;;;2.70;;
13855;SDS011;6998;53.608;9.958;2023-04-24T03:30:04;3.65;;;2.85;;
13855;SDS011;6998;53.608;9.958;2023-04-24T03:32:32;3.05;;;2.70;;
13855;SDS011;6998;53.608;9.958;2023-04-24T03:34:59;3.85;;;3.10;;
13855;SDS011;6998;53.608;9.958;2023-04-24T03:37:26;3.28;;;2.97;;
13855;SDS011;6998;53.608;9.958;2023-04-24T03:39:54;3.03;;;2.72;;
13855;SDS011;6998;53.608;9.958;2023-04-24T03:42:21;3.72;;;2.83;;
13855;SDS011;6998;53.608;9.958;2023-04-24T03:44:48;2.80;;;2.60;;
13855;SDS011;6998;53.608;9.958;2023-04-24T03:47:15;3.17;;;2.88;;
13855;SDS011;6998;53.608;9.958;2023-04-24T03:49:42;3.55;;;2.80;;
13855;SDS011;6998;53.608;9.958;2023-04-24T03:52:10;3.70;;;2.95;;
13855;SDS011;6998;53.608;9.958;2023-04-24T03:54:37;3.28;;;2.75;;
13855;SDS011;6998;53.608;9.958;2023-04-24T03:57:05;2.88;;;2.60;;
13855;SDS011;6998;53.608;9.958;2023-04-24T03:59:32;3.30;;;2.33;;
13855;SDS011;6998;53.608;9.958;2023-04-24T04:01:59;5.60;;;2.47;;
13855;SDS011;6998;53.608;9.958;2023-04-24T04:04:26;4.07;;;2.75;;
13855;SDS011;6998;53.608;9.958;2023-04-24T04:06:53;2.80;;;2.50;;
13855;SDS011;6998;53.608;9.958;2023-04-24T04:09:19;3.90;;;2.20;;
13855;SDS011;6998;53.608;9.958;2023-04-24T04:11:46;2.47;;;2.28;;
13855;SDS011;6998;53.608;9.958;2023-04-24T04:14:14;2.58;;;2.08;;
13855;SDS011;6998;53.608;9.958;2023-04-24T04:16:41;2.20;;;2.00;;
13855;SDS011;6998;53.608;9.958;2023-04-24T04:19:08;3.47;;;2.63;;
13855;SDS011;6998;53.608;9.958;2023-04-24T04:21:35;3.17;;;2.45;;
13855;SDS011;6998;53.608;9.958;2023-04-24T04:24:02;3.13;;;2.70;;
13855;SDS011;6998;53.608;9.958;2023-04-24T04:26:30;4.93;;;2.90;;
13855;SDS011;6998;53.608;9.958;2023-04-24T04:28:57;6.32;;;3.30;;
13855;SDS011;6998;53.608;9.958;2023-04-24T04:31:27;5.05;;;3.10;;
13855;SDS011;6998;53.608;9.958;2023-04-24T04:33:54;3.80;;;3.08;;
13855;SDS011;6998;53.608;9.958;2023-04-24T04:36:21;3.13;;;2.53;;
13855;SDS011;6998;53.608;9.958;2023-04-24T04:38:48;4.68;;;2.67;;
13855;SDS011;6998;53.608;9.958;2023-04-24T04:41:15;2.85;;;2.30;;
13855;SDS011;6998;53.608;9.958;2023-04-24T04:43:43;3.03;;;2.20;;
13855;SDS011;6998;53.608;9.958;2023-04-24T04:46:11;3.80;;;2.10;;
13855;SDS011;6998;53.608;9.958;2023-04-24T04:48:39;2.85;;;2.10;;
13855;SDS011;6998;53.608;9.958;2023-04-24T04:51:06;3.63;;;1.85;;
13855;SDS011;6998;53.608;9.958;2023-04-24T04:53:33;2.63;;;1.90;;
13855;SDS011;6998;53.608;9.958;2023-04-24T04:56:00;1.95;;;1.75;;
13855;SDS011;6998;53.608;9.958;2023-04-24T04:58:27;1.73;;;1.63;;
13855;SDS011;6998;53.608;9.958;2023-04-24T05:00:54;2.15;;;1.67;;
13855;SDS011;6998;53.608;9.958;2023-04-24T05:03:22;2.10;;;1.90;;
13855;SDS011;6998;53.608;9.958;2023-04-24T05:05:50;2.60;;;1.90;;
13855;SDS011;6998;53.608;9.958;2023-04-24T05:08:20;2.22;;;2.03;;
13855;SDS011;6998;53.608;9.958;2023-04-24T05:10:47;3.13;;;2.35;;
13855;SDS011;6998;53.608;9.958;2023-04-24T05:13:14;2.50;;;2.30;;
13855;SDS011;6998;53.608;9.958;2023-04-24T05:15:41;2.47;;;2.28;;
13855;SDS011;6998;53.608;9.958;2023-04-24T05:18:08;2.25;;;2.00;;
13855;SDS011;6998;53.608;9.958;2023-04-24T05:20:35;2.03;;;1.90;;
13855;SDS011;6998;53.608;9.958;2023-04-24T05:23:03;3.38;;;1.98;;
13855;SDS011;6998;53.608;9.958;2023-04-24T05:25:30;2.70;;;2.22;;
13855;SDS011;6998;53.608;9.958;2023-04-24T05:28:00;2.60;;;1.67;;
13855;SDS011;6998;53.608;9.958;2023-04-24T05:30:27;2.88;;;1.92;;
13855;SDS011;6998;53.608;9.958;2023-04-24T05:32:54;2.03;;;1.75;;
13855;SDS011;6998;53.608;9.958;2023-04-24T05:35:20;2.50;;;1.60;;
13855;SDS011;6998;53.608;9.958;2023-04-24T05:37:47;1.60;;;1.50;;
13855;SDS011;6998;53.608;9.958;2023-04-24T05:40:15;1.95;;;1.20;;
13855;SDS011;6998;53.608;9.958;2023-04-24T05:42:42;2.90;;;1.65;;
13855;SDS011;6998;53.608;9.958;2023-04-24T05:45:13;1.65;;;1.50;;
13855;SDS011;6998;53.608;9.958;2023-04-24T05:47:41;1.75;;;1.65;;
13855;SDS011;6998;53.608;9.958;2023-04-24T05:50:09;3.25;;;1.83;;
13855;SDS011;6998;53.608;9.958;2023-04-24T05:52:36;3.33;;;2.15;;
13855;SDS011;6998;53.608;9.958;2023-04-24T05:55:03;2.72;;;1.80;;
13855;SDS011;6998;53.608;9.958;2023-04-24T05:57:32;2.40;;;2.20;;
13855;SDS011;6998;53.608;9.958;2023-04-24T06:00:00;2.67;;;1.90;;
13855;SDS011;6998;53.608;9.958;2023-04-24T06:02:27;3.47;;;2.22;;
13855;SDS011;6998;53.608;9.958;2023-04-24T06:04:57;3.15;;;2.10;;
13855;SDS011;6998;53.608;9.958;2023-04-24T06:07:24;2.17;;;1.95;;
13855;SDS011;6998;53.608;9.958;2023-04-24T06:09:52;3.15;;;2.00;;
13855;SDS011;6998;53.608;9.958;2023-04-24T06:12:18;2.45;;;2.03;;
13855;SDS011;6998;53.608;9.958;2023-04-24T06:14:47;2.20;;;2.00;;
13855;SDS011;6998;53.608;9.958;2023-04-24T06:17:14;1.83;;;1.67;;
13855;SDS011;6998;53.608;9.958;2023-04-24T06:19:41;2.55;;;1.73;;
13855;SDS011;6998;53.608;9.958;2023-04-24T06:22:08;2.28;;;1.85;;
13855;SDS011;6998;53.608;9.958;2023-04-24T06:24:35;2.40;;;2.20;;
13855;SDS011;6998;53.608;9.958;2023-04-24T06:27:02;2.22;;;2.00;;
13855;SDS011;6998;53.608;9.958;2023-04-24T06:29:29;2.83;;;1.90;;
13855;SDS011;6998;53.608;9.958;2023-04-24T06:31:57;4.22;;;1.95;;
13855;SDS011;6998;53.608;9.958;2023-04-24T06:34:24;2.33;;;1.90;;
13855;SDS011;6998;53.608;9.958;2023-04-24T06:36:51;2.22;;;1.85;;
13855;SDS011;6998;53.608;9.958;2023-04-24T06:39:18;2.60;;;1.98;;
13855;SDS011;6998;53.608;9.958;2023-04-24T06:41:45;1.92;;;1.73;;
13855;SDS011;6998;53.608;9.958;2023-04-24T06:44:11;2.20;;;2.00;;
13855;SDS011;6998;53.608;9.958;2023-04-24T06:46:39;2.28;;;2.08;;
13855;SDS011;6998;53.608;9.958;2023-04-24T06:49:08;2.35;;;2.15;;
13855;SDS011;6998;53.608;9.958;2023-04-24T06:51:34;2.25;;;2.05;;
13855;SDS011;6998;53.608;9.958;2023-04-24T06:54:01;2.10;;;1.90;;
13855;SDS011;6998;53.608;9.958;2023-04-24T06:56:28;4.45;;;1.98;;
13855;SDS011;6998;53.608;9.958;2023-04-24T06:58:55;2.33;;;1.90;;
13855;SDS011;6998;53.608;9.958;2023-04-24T07:01:24;2.80;;;2.05;;
13855;SDS011;6998;53.608;9.958;2023-04-24T07:03:51;2.42;;;1.90;;
13855;SDS011;6998;53.608;9.958;2023-04-24T07:06:19;2.30;;;2.10;;
13855;SDS011;6998;53.608;9.958;2023-04-24T07:08:49;2.40;;;2.20;;
13855;SDS011;6998;53.608;9.958;2023-04-24T07:11:16;3.13;;;2.35;;
13855;SDS011;6998;53.608;9.958;2023-04-24T07:13:43;3.40;;;2.38;;
13855;SDS011;6998;53.608;9.958;2023-04-24T07:16:10;3.35;;;2.45;;
13855;SDS011;6998;53.608;9.958;2023-04-24T07:18:37;4.80;;;2.60;;
13855;SDS011;6998;53.608;9.958;2023-04-24T07:21:04;2.90;;;2.70;;
13855;SDS011;6998;53.608;9.958;2023-04-24T07:23:33;3.75;;;2.50;;
13855;SDS011;6998;53.608;9.958;2023-04-24T07:26:00;3.10;;;2.90;;
13855;SDS011;6998;53.608;9.958;2023-04-24T07:28:27;3.97;;;2.90;;
13855;SDS011;6998;53.608;9.958;2023-04-24T07:30:57;3.05;;;2.85;;
13855;SDS011;6998;53.608;9.958;2023-04-24T07:33:24;4.25;;;2.92;;
13855;SDS011;6998;53.608;9.958;2023-04-24T07:35:51;3.78;;;3.47;;
13855;SDS011;6998;53.608;9.958;2023-04-24T07:38:18;3.40;;;3.20;;
13855;SDS011;6998;53.608;9.958;2023-04-24T07:40:48;4.60;;;3.58;;
13855;SDS011;6998;53.608;9.958;2023-04-24T07:43:15;3.40;;;3.15;;
13855;SDS011;6998;53.608;9.958;2023-04-24T07:45:42;3.58;;;3.28;;
13855;SDS011;6998;53.608;9.958;2023-04-24T07:48:09;4.07;;;3.70;;
13855;SDS011;6998;53.608;9.958;2023-04-24T07:50:36;3.20;;;3.00;;
13855;SDS011;6998;53.608;9.958;2023-04-24T07:53:03;4.22;;;3.83;;
13855;SDS011;6998;53.608;9.958;2023-04-24T07:55:30;4.05;;;3.55;;
13855;SDS011;6998;53.608;9.958;2023-04-24T07:57:58;3.50;;;3.20;;
13855;SDS011;6998;53.608;9.958;2023-04-24T08:00:25;4.00;;;3.60;;
13855;SDS011;6998;53.608;9.958;2023-04-24T08:02:51;4.43;;;3.20;;
13855;SDS011;6998;53.608;9.958;2023-04-24T08:05:18;4.05;;;3.65;;
13855;SDS011;6998;53.608;9.958;2023-04-24T08:07:45;4.63;;;3.65;;
13855;SDS011;6998;53.608;9.958;2023-04-24T08:10:13;4.20;;;3.83;;
13855;SDS011;6998;53.608;9.958;2023-04-24T08:12:41;4.22;;;3.92;;
13855;SDS011;6998;53.608;9.958;2023-04-24T08:15:10;4.53;;;4.13;;
13855;SDS011;6998;53.608;9.958;2023-04-24T08:17:38;5.65;;;4.50;;
13855;SDS011;6998;53.608;9.958;2023-04-24T08:20:05;4.63;;;4.22;;
13855;SDS011;6998;53.608;9.958;2023-04-24T08:22:38;5.38;;;4.45;;
13855;SDS011;6998;53.608;9.958;2023-04-24T08:25:05;4.93;;;4.53;;
13855;SDS011;6998;53.608;9.958;2023-04-24T08:27:33;5.07;;;4.68;;
13855;SDS011;6998;53.608;9.958;2023-04-24T08:30:01;5.07;;;4.68;;
13855;SDS011;6998;53.608;9.958;2023-04-24T08:32:30;5.55;;;4.45;;
13855;SDS011;6998;53.608;9.958;2023-04-24T08:34:57;4.57;;;4.28;;
13855;SDS011;6998;53.608;9.958;2023-04-24T08:37:25;5.35;;;4.63;;
13855;SDS011;6998;53.608;9.958;2023-04-24T08:39:54;4.95;;;4.45;;
13855;SDS011;6998;53.608;9.958;2023-04-24T08:42:21;5.35;;;4.85;;
13855;SDS011;6998;53.608;9.958;2023-04-24T08:44:49;5.07;;;4.60;;
13855;SDS011;6998;53.608;9.958;2023-04-24T08:47:16;5.10;;;4.55;;
13855;SDS011;6998;53.608;9.958;2023-04-24T08:49:46;4.93;;;4.53;;
13855;SDS011;6998;53.608;9.958;2023-04-24T08:52:15;5.20;;;4.32;;
13855;SDS011;6998;53.608;9.958;2023-04-24T08:54:47;4.97;;;4.55;;
13855;SDS011;6998;53.608;9.958;2023-04-24T08:57:14;5.03;;;4.53;;
13855;SDS011;6998;53.608;9.958;2023-04-24T08:59:42;5.47;;;4.97;;
13855;SDS011;6998;53.608;9.958;2023-04-24T09:02:12;5.50;;;5.05;;
13855;SDS011;6998;53.608;9.958;2023-04-24T09:04:40;7.57;;;5.30;;
13855;SDS011;6998;53.608;9.958;2023-04-24T09:07:10;6.38;;;5.88;;
13855;SDS011;6998;53.608;9.958;2023-04-24T09:09:41;6.70;;;5.97;;
13855;SDS011;6998;53.608;9.958;2023-04-24T09:12:08;6.80;;;6.10;;
13855;SDS011;6998;53.608;9.958;2023-04-24T09:14:36;6.40;;;5.75;;
13855;SDS011;6998;53.608;9.958;2023-04-24T09:17:04;5.60;;;5.10;;
13855;SDS011;6998;53.608;9.958;2023-04-24T09:19:32;5.70;;;5.10;;
13855;SDS011;6998;53.608;9.958;2023-04-24T09:21:59;6.15;;;5.63;;
13855;SDS011;6998;53.608;9.958;2023-04-24T09:24:27;6.22;;;5.45;;
13855;SDS011;6998;53.608;9.958;2023-04-24T09:26:56;6.90;;;5.65;;
13855;SDS011;6998;53.608;9.958;2023-04-24T09:29:23;6.00;;;5.45;;
13855;SDS011;6998;53.608;9.958;2023-04-24T09:31:50;5.60;;;5.10;;
13855;SDS011;6998;53.608;9.958;2023-04-24T09:34:20;6.07;;;5.13;;
13855;SDS011;6998;53.608;9.958;2023-04-24T09:36:48;5.55;;;5.05;;
13855;SDS011;6998;53.608;9.958;2023-04-24T09:39:16;5.40;;;4.90;;
13855;SDS011;6998;53.608;9.958;2023-04-24T09:41:47;7.03;;;5.00;;
13855;SDS011;6998;53.608;9.958;2023-04-24T09:44:15;5.85;;;5.25;;
13855;SDS011;6998;53.608;9.958;2023-04-24T09:46:43;5.88;;;5.28;;
13855;SDS011;6998;53.608;9.958;2023-04-24T09:49:15;5.93;;;5.43;;
13855;SDS011;6998;53.608;9.958;2023-04-24T09:51:46;8.27;;;5.97;;
13855;SDS011;6998;53.608;9.958;2023-04-24T09:54:14;6.10;;;5.60;;
13855;SDS011;6998;53.608;9.958;2023-04-24T09:56:45;6.60;;;5.90;;
13855;SDS011;6998;53.608;9.958;2023-04-24T09:59:15;6.25;;;5.25;;
13855;SDS011;6998;53.608;9.958;2023-04-24T10:01:42;5.63;;;5.13;;
13855;SDS011;6998;53.608;9.958;2023-04-24T10:04:16;6.25;;;5.10;;
13855;SDS011;6998;53.608;9.958;2023-04-24T10:06:44;6.10;;;5.60;;
13855;SDS011;6998;53.608;9.958;2023-04-24T10:09:11;6.95;;;6.18;;
13855;SDS011;6998;53.608;9.958;2023-04-24T10:11:40;7.70;;;6.90;;
13855;SDS011;6998;53.608;9.958;2023-04-24T10:14:10;7.90;;;7.00;;
13855;SDS011;6998;53.608;9.958;2023-04-24T10:16:39;9.07;;;7.70;;
13855;SDS011;6998;53.608;9.958;2023-04-24T10:19:06;8.70;;;8.00;;
13855;SDS011;6998;53.608;9.958;2023-04-24T10:21:34;8.57;;;7.78;;
13855;SDS011;6998;53.608;9.958;2023-04-24T10:24:02;9.27;;;8.27;;
13855;SDS011;6998;53.608;9.958;2023-04-24T10:26:29;10.20;;;8.73;;
13855;SDS011;6998;53.608;9.958;2023-04-24T10:28:57;8.18;;;7.47;;
13855;SDS011;6998;53.608;9.958;2023-04-24T10:31:26;9.57;;;8.57;;
13855;SDS011;6998;53.608;9.958;2023-04-24T10:33:57;9.77;;;8.77;;
13855;SDS011;6998;53.608;9.958;2023-04-24T10:36:25;10.13;;;8.13;;
13855;SDS011;6998;53.608;9.958;2023-04-24T10:38:57;9.52;;;8.73;;
13855;SDS011;6998;53.608;9.958;2023-04-24T10:41:27;9.38;;;8.50;;
13855;SDS011;6998;53.608;9.958;2023-04-24T10:44:05;9.50;;;8.50;;
13855;SDS011;6998;53.608;9.958;2023-04-24T10:46:34;11.20;;;9.20;;
13855;SDS011;6998;53.608;9.958;2023-04-24T10:49:03;10.48;;;9.27;;
13855;SDS011;6998;53.608;9.958;2023-04-24T10:51:43;10.75;;;8.82;;
13855;SDS011;6998;53.608;9.958;2023-04-24T10:54:21;12.68;;;9.57;;
13855;SDS011;6998;53.608;9.958;2023-04-24T10:56:52;10.73;;;9.73;;
13855;SDS011;6998;53.608;9.958;2023-04-24T10:59:23;10.77;;;9.02;;
13855;SDS011;6998;53.608;9.958;2023-04-24T11:01:55;10.07;;;9.07;;
13855;SDS011;6998;53.608;9.958;2023-04-24T11:04:28;9.38;;;8.48;;
13855;SDS011;6998;53.608;9.958;2023-04-24T11:06:56;9.30;;;8.40;;
13855;SDS011;6998;53.608;9.958;2023-04-24T11:09:26;9.82;;;8.60;;
13855;SDS011;6998;53.608;9.958;2023-04-24T11:12:02;9.55;;;8.35;;
13855;SDS011;6998;53.608;9.958;2023-04-24T11:17:29;9.82;;;8.82;;
13855;SDS011;6998;53.608;9.958;2023-04-24T11:20:01;10.80;;;9.65;;
13855;SDS011;6998;53.608;9.958;2023-04-24T11:22:32;10.55;;;8.73;;
13855;SDS011;6998;53.608;9.958;2023-04-24T11:25:01;10.10;;;9.13;;
13855;SDS011;6998;53.608;9.958;2023-04-24T11:27:29;9.82;;;8.60;;
13855;SDS011;6998;53.608;9.958;2023-04-24T11:29:59;9.02;;;7.88;;
13855;SDS011;6998;53.608;9.958;2023-04-24T11:32:28;8.98;;;8.10;;
13855;SDS011;6998;53.608;9.958;2023-04-24T11:35:01;9.18;;;8.27;;
13855;SDS011;6998;53.608;9.958;2023-04-24T11:37:33;9.27;;;8.38;;
13855;SDS011;6998;53.608;9.958;2023-04-24T11:40:01;7.93;;;7.25;;
13855;SDS011;6998;53.608;9.958;2023-04-24T11:42:33;9.10;;;7.85;;
13855;SDS011;6998;53.608;9.958;2023-04-24T11:45:00;8.93;;;7.97;;
13855;SDS011;6998;53.608;9.958;2023-04-24T11:47:29;8.70;;;7.88;;
13855;SDS011;6998;53.608;9.958;2023-04-24T11:49:59;9.10;;;8.20;;
13855;SDS011;6998;53.608;9.958;2023-04-24T11:52:26;8.45;;;7.65;;
13855;SDS011;6998;53.608;9.958;2023-04-24T11:54:54;9.02;;;8.18;;
13855;SDS011;6998;53.608;9.958;2023-04-24T11:57:21;9.20;;;8.30;;
13855;SDS011;6998;53.608;9.958;2023-04-24T11:59:48;9.50;;;8.50;;
13855;SDS011;6998;53.608;9.958;2023-04-24T12:02:22;9.20;;;8.20;;
13855;SDS011;6998;53.608;9.958;2023-04-24T12:04:51;7.78;;;7.05;;
13855;SDS011;6998;53.608;9.958;2023-04-24T12:07:19;7.82;;;7.00;;
13855;SDS011;6998;53.608;9.958;2023-04-24T12:09:46;8.05;;;7.00;;
13855;SDS011;6998;53.608;9.958;2023-04-24T12:12:14;7.80;;;6.82;;
13855;SDS011;6998;53.608;9.958;2023-04-24T12:14:52;8.32;;;6.15;;
13855;SDS011;6998;53.608;9.958;2023-04-24T12:17:24;6.88;;;6.28;;
13855;SDS011;6998;53.608;9.958;2023-04-24T12:19:56;8.82;;;6.47;;
13855;SDS011;6998;53.608;9.958;2023-04-24T12:22:24;6.85;;;6.25;;
13855;SDS011;6998;53.608;9.958;2023-04-24T12:24:57;6.95;;;6.32;;
13855;SDS011;6998;53.608;9.958;2023-04-24T12:27:28;6.75;;;6.07;;
13855;SDS011;6998;53.608;9.958;2023-04-24T12:29:57;7.40;;;6.70;;
13855;SDS011;6998;53.608;9.958;2023-04-24T12:32:24;6.85;;;6.25;;
13855;SDS011;6998;53.608;9.958;2023-04-24T12:34:53;7.70;;;7.00;;
13855;SDS011;6998;53.608;9.958;2023-04-24T12:37:22;7.32;;;6.50;;
13855;SDS011;6998;53.608;9.958;2023-04-24T12:39:59;7.30;;;6.60;;
13855;SDS011;6998;53.608;9.958;2023-04-24T12:42:34;7.82;;;7.03;;
13855;SDS011;6998;53.608;9.958;2023-04-24T12:45:02;7.57;;;6.32;;
13855;SDS011;6998;53.608;9.958;2023-04-24T12:47:30;7.75;;;7.05;;
13855;SDS011;6998;53.608;9.958;2023-04-24T12:49:59;8.38;;;7.63;;
13855;SDS011;6998;53.608;9.958;2023-04-24T12:52:27;8.13;;;7.35;;
13855;SDS011;6998;53.608;9.958;2023-04-24T12:54:57;8.32;;;7.53;;
13855;SDS011;6998;53.608;9.958;2023-04-24T12:57:25;8.13;;;7.32;;
13855;SDS011;6998;53.608;9.958;2023-04-24T12:59:53;8.38;;;7.28;;
13855;SDS011;6998;53.608;9.958;2023-04-24T13:02:20;7.00;;;6.30;;
13855;SDS011;6998;53.608;9.958;2023-04-24T13:04:47;7.07;;;6.43;;
13855;SDS011;6998;53.608;9.958;2023-04-24T13:07:16;7.03;;;6.43;;
13855;SDS011;6998;53.608;9.958;2023-04-24T13:09:43;7.30;;;6.30;;
13855;SDS011;6998;53.608;9.958;2023-04-24T13:12:11;6.60;;;6.00;;
13855;SDS011;6998;53.608;9.958;2023-04-24T13:14:39;7.22;;;6.38;;
13855;SDS011;6998;53.608;9.958;2023-04-24T13:17:05;6.72;;;5.68;;
13855;SDS011;6998;53.608;9.958;2023-04-24T13:19:35;6.38;;;5.78;;
13855;SDS011;6998;53.608;9.958;2023-04-24T13:22:02;6.70;;;6.05;;
13855;SDS011;6998;53.608;9.958;2023-04-24T13:24:31;6.38;;;5.78;;
13855;SDS011;6998;53.608;9.958;2023-04-24T13:26:58;6.18;;;5.60;;
13855;SDS011;6998;53.608;9.958;2023-04-24T13:29:25;6.07;;;5.50;;
13855;SDS011;6998;53.608;9.958;2023-04-24T13:31:52;5.93;;;5.05;;
13855;SDS011;6998;53.608;9.958;2023-04-24T13:34:21;5.40;;;4.90;;
13855;SDS011;6998;53.608;9.958;2023-04-24T13:36:47;6.00;;;5.35;;
13855;SDS011;6998;53.608;9.958;2023-04-24T13:39:15;7.38;;;5.35;;
13855;SDS011;6998;53.608;9.958;2023-04-24T13:41:43;5.00;;;4.60;;
13855;SDS011;6998;53.608;9.958;2023-04-24T13:44:10;5.60;;;5.10;;
13855;SDS011;6998;53.608;9.958;2023-04-24T13:46:37;7.30;;;5.03;;
13855;SDS011;6998;53.608;9.958;2023-04-24T13:49:03;6.53;;;5.93;;
13855;SDS011;6998;53.608;9.958;2023-04-24T13:51:30;6.55;;;5.80;;
13855;SDS011;6998;53.608;9.958;2023-04-24T13:53:57;8.20;;;7.40;;
13855;SDS011;6998;53.608;9.958;2023-04-24T13:56:24;9.75;;;8.20;;
13855;SDS011;6998;53.608;9.958;2023-04-24T13:58:54;6.13;;;5.63;;
13855;SDS011;6998;53.608;9.958;2023-04-24T14:01:20;6.40;;;5.80;;
13855;SDS011;6998;53.608;9.958;2023-04-24T14:03:49;5.53;;;5.03;;
13855;SDS011;6998;53.608;9.958;2023-04-24T14:06:17;5.90;;;5.40;;
13855;SDS011;6998;53.608;9.958;2023-04-24T14:08:43;5.30;;;4.90;;
13855;SDS011;6998;53.608;9.958;2023-04-24T14:11:10;5.93;;;5.25;;
13855;SDS011;6998;53.608;9.958;2023-04-24T14:13:37;5.72;;;5.22;;
13855;SDS011;6998;53.608;9.958;2023-04-24T14:16:07;5.97;;;5.05;;
13855;SDS011;6998;53.608;9.958;2023-04-24T14:18:35;5.57;;;5.05;;
13855;SDS011;6998;53.608;9.958;2023-04-24T14:21:01;5.55;;;5.00;;
13855;SDS011;6998;53.608;9.958;2023-04-24T14:23:28;5.07;;;4.68;;
13855;SDS011;6998;53.608;9.958;2023-04-24T14:25:56;5.53;;;5.07;;
13855;SDS011;6998;53.608;9.958;2023-04-24T14:28:23;6.05;;;5.45;;
13855;SDS011;6998;53.608;9.958;2023-04-24T14:30:51;6.13;;;5.53;;
13855;SDS011;6998;53.608;9.958;2023-04-24T14:33:20;7.47;;;6.50;;
13855;SDS011;6998;53.608;9.958;2023-04-24T14:35:46;7.60;;;7.00;;
13855;SDS011;6998;53.608;9.958;2023-04-24T14:38:14;9.60;;;8.65;;
13855;SDS011;6998;53.608;9.958;2023-04-24T14:40:41;9.80;;;9.00;;
13855;SDS011;6998;53.608;9.958;2023-04-24T14:43:08;10.90;;;10.00;;
13855;SDS011;6998;53.608;9.958;2023-04-24T14:45:35;10.32;;;9.38;;
13855;SDS011;6998;53.608;9.958;2023-04-24T14:48:03;10.52;;;9.68;;
13855;SDS011;6998;53.608;9.958;2023-04-24T14:50:31;11.02;;;10.13;;
13855;SDS011;6998;53.608;9.958;2023-04-24T14:52:58;11.02;;;10.02;;
13855;SDS011;6998;53.608;9.958;2023-04-24T14:55:27;10.95;;;9.98;;
13855;SDS011;6998;53.608;9.958;2023-04-24T14:57:53;11.00;;;10.00;;
13855;SDS011;6998;53.608;9.958;2023-04-24T15:00:20;11.43;;;10.43;;
13855;SDS011;6998;53.608;9.958;2023-04-24T15:02:48;11.55;;;10.45;;
13855;SDS011;6998;53.608;9.958;2023-04-24T15:05:15;11.77;;;10.77;;
13855;SDS011;6998;53.608;9.958;2023-04-24T15:07:43;11.30;;;10.30;;